Time;durP1;ratioP1;P1;durP2;ratioP2;P2;SDS_P1;SDS_P2;PMS_P1;PMS_P2;Temp;Humidity;BMP_temperature;BMP_pressure;BME280_temperature;BME280_humidity;BME280_pressure;Samples;Min_cycle;Max_cycle;Signal;HPM_P1;HPM_P2
2022/06/17 00:00:50;;;;;;;5.63;3.90;;;15.80;99.90;;;;;;4983009;28;20088;-73
2022/06/17 00:03:17;;;;;;;6.55;3.53;;;15.80;99.90;;;;;;4984560;28;20038;-74
2022/06/17 00:05:43;;;;;;;6.07;4.20;;;15.80;99.90;;;;;;4984947;28;20562;-74
2022/06/17 00:08:19;;;;;;;7.07;4.13;;;15.70;99.90;;;;;;4983147;28;20632;-74
2022/06/17 00:10:45;;;;;;;5.55;3.70;;;15.80;99.90;;;;;;4985673;28;20173;-74
2022/06/17 00:13:13;;;;;;;5.82;3.33;;;15.70;99.90;;;;;;4986640;28;20840;-74
2022/06/17 00:15:39;;;;;;;5.15;3.88;;;15.60;99.90;;;;;;4980978;28;20049;-74
2022/06/17 00:18:05;;;;;;;5.45;4.13;;;15.60;99.90;;;;;;4985489;28;20034;-73
2022/06/17 00:20:34;;;;;;;6.15;3.78;;;15.60;99.90;;;;;;4985041;28;20548;-74
2022/06/17 00:23:00;;;;;;;7.35;3.80;;;15.60;99.90;;;;;;4980532;28;20033;-73
2022/06/17 00:25:34;;;;;;;7.38;4.20;;;15.60;99.90;;;;;;4986554;28;20561;-73
2022/06/17 00:28:01;;;;;;;4.75;3.40;;;15.60;99.90;;;;;;4988204;28;20112;-73
2022/06/17 00:30:31;;;;;;;6.32;3.55;;;15.50;99.90;;;;;;4987584;28;20055;-73
2022/06/17 00:33:00;;;;;;;6.13;3.80;;;15.60;99.90;;;;;;4964491;28;20446;-73
2022/06/17 00:35:36;;;;;;;6.35;4.07;;;15.50;99.90;;;;;;4984317;28;20030;-73
2022/06/17 00:38:03;;;;;;;7.35;3.60;;;15.50;99.90;;;;;;4983264;28;20030;-73
2022/06/17 00:40:33;;;;;;;6.35;3.55;;;15.50;99.90;;;;;;4988199;28;20034;-73
2022/06/17 00:43:03;;;;;;;5.90;3.95;;;15.40;99.90;;;;;;4981091;28;20129;-73
2022/06/17 00:45:36;;;;;;;5.30;3.95;;;15.40;99.90;;;;;;4985695;28;20961;-73
2022/06/17 00:48:13;;;;;;;6.35;4.07;;;15.30;99.90;;;;;;4985826;28;20030;-73
2022/06/17 00:50:45;;;;;;;5.85;4.22;;;15.40;99.90;;;;;;4984872;28;20086;-73
2022/06/17 00:53:15;;;;;;;7.10;3.95;;;15.30;99.90;;;;;;4983886;28;20537;-74
2022/06/17 00:56:04;;;;;;;6.75;4.15;;;15.30;99.90;;;;;;4985996;28;20057;-74
2022/06/17 00:58:51;;;;;;;7.90;4.50;;;15.30;99.90;;;;;;4987567;28;20034;-73
2022/06/17 01:01:17;;;;;;;6.78;4.25;;;15.20;99.90;;;;;;4979106;28;20041;-73
2022/06/17 01:03:44;;;;;;;6.30;4.50;;;15.20;99.90;;;;;;4983657;28;20030;-73
2022/06/17 01:06:15;;;;;;;9.65;4.93;;;15.20;99.90;;;;;;4982472;28;21406;-73
2022/06/17 01:11:41;;;;;;;5.70;4.43;;;15.10;99.90;;;;;;4982373;28;20066;-72
2022/06/17 01:14:11;;;;;;;6.80;4.43;;;15.10;99.90;;;;;;4983288;28;20038;-74
2022/06/17 01:16:39;;;;;;;7.97;4.05;;;15.10;99.90;;;;;;4967834;28;20038;-74
2022/06/17 01:19:22;;;;;;;8.40;4.50;;;15.10;99.90;;;;;;4986829;28;20052;-74
2022/06/17 01:22:02;;;;;;;7.32;4.50;;;15.10;99.90;;;;;;4981244;28;20041;-74
2022/06/17 01:24:28;;;;;;;5.93;3.80;;;15.10;99.90;;;;;;4983075;28;20038;-73
2022/06/17 01:26:54;;;;;;;6.82;4.70;;;15.00;99.90;;;;;;4980241;28;20041;-73
2022/06/17 01:29:19;;;;;;;6.10;4.25;;;15.00;99.90;;;;;;4987095;28;20031;-73
2022/06/17 01:31:50;;;;;;;7.25;4.50;;;15.00;99.90;;;;;;4985560;28;20030;-74
2022/06/17 01:34:17;;;;;;;6.68;4.18;;;15.00;99.90;;;;;;4980875;28;20030;-74
2022/06/17 01:36:44;;;;;;;7.20;5.07;;;14.90;99.90;;;;;;4982417;28;20038;-73
2022/06/17 01:39:14;;;;;;;5.22;4.35;;;14.90;99.90;;;;;;4989695;28;20037;-73
2022/06/17 01:41:43;;;;;;;7.47;5.03;;;14.90;99.90;;;;;;4982855;28;20152;-73
2022/06/17 01:44:19;;;;;;;7.00;4.57;;;14.90;99.90;;;;;;4984104;28;20043;-73
2022/06/17 01:46:48;;;;;;;7.55;4.40;;;14.90;99.90;;;;;;4986003;28;20081;-74
2022/06/17 01:49:29;;;;;;;5.57;4.22;;;14.90;99.90;;;;;;4985330;28;20106;-74
2022/06/17 01:52:06;;;;;;;9.15;4.82;;;14.80;99.90;;;;;;4978898;28;20058;-73
2022/06/17 01:54:57;;;;;;;6.43;4.40;;;14.80;99.90;;;;;;4976597;28;20566;-74
2022/06/17 01:57:35;;;;;;;6.40;5.00;;;14.80;99.90;;;;;;4983612;28;20030;-73
2022/06/17 02:00:12;;;;;;;6.18;4.47;;;14.80;99.90;;;;;;4981704;28;20031;-73
2022/06/17 02:02:40;;;;;;;7.43;4.28;;;14.70;99.90;;;;;;4980727;28;20121;-73
2022/06/17 02:05:09;;;;;;;5.80;4.30;;;14.70;99.90;;;;;;4983910;28;20042;-73
2022/06/17 02:07:47;;;;;;;5.80;4.72;;;14.70;99.90;;;;;;4983937;28;20499;-73
2022/06/17 02:10:14;;;;;;;8.48;4.90;;;14.60;99.90;;;;;;4983522;28;20034;-73
2022/06/17 02:12:40;;;;;;;6.38;4.70;;;14.70;99.90;;;;;;4982433;28;21181;-73
2022/06/17 02:15:08;;;;;;;8.82;4.90;;;14.60;99.90;;;;;;4981398;28;20865;-73
2022/06/17 02:17:39;;;;;;;9.30;5.20;;;14.60;99.90;;;;;;4981262;28;20030;-74
2022/06/17 02:20:08;;;;;;;8.93;5.68;;;14.60;99.90;;;;;;4980323;28;20034;-73
2022/06/17 02:22:36;;;;;;;5.75;4.95;;;14.60;99.90;;;;;;4961103;28;20030;-74
2022/06/17 02:25:06;;;;;;;9.50;5.20;;;14.60;99.90;;;;;;4981756;28;20061;-74
2022/06/17 02:27:34;;;;;;;9.05;5.57;;;14.50;99.90;;;;;;4981759;28;20479;-74
2022/06/17 02:30:02;;;;;;;10.93;5.80;;;14.50;99.90;;;;;;4981936;28;20065;-74
2022/06/17 02:32:30;;;;;;;8.70;5.45;;;14.50;99.90;;;;;;4978287;28;20031;-74
2022/06/17 02:34:58;;;;;;;8.10;5.70;;;14.50;99.90;;;;;;4980348;28;20070;-74
2022/06/17 02:37:25;;;;;;;9.20;5.50;;;14.50;99.90;;;;;;4977723;28;20092;-73
2022/06/17 02:39:52;;;;;;;7.47;5.85;;;14.50;99.90;;;;;;4968011;28;20053;-74
2022/06/17 02:42:38;;;;;;;6.50;5.32;;;14.40;99.90;;;;;;4980991;28;20027;-74
2022/06/17 02:45:14;;;;;;;8.65;5.40;;;14.40;99.90;;;;;;4981520;28;20185;-73
2022/06/17 02:47:40;;;;;;;7.00;4.68;;;14.40;99.90;;;;;;4980657;28;20037;-73
2022/06/17 02:50:06;;;;;;;6.95;5.25;;;14.40;99.90;;;;;;4980506;28;20219;-73
2022/06/17 02:52:38;;;;;;;7.45;5.70;;;14.30;99.90;;;;;;4980607;28;20061;-74
2022/06/17 02:55:12;;;;;;;8.02;5.68;;;14.30;99.90;;;;;;4982655;28;20384;-74
2022/06/17 02:57:39;;;;;;;8.85;5.72;;;14.30;99.90;;;;;;4981833;28;20065;-73
2022/06/17 03:00:15;;;;;;;7.68;5.82;;;14.30;99.90;;;;;;4980766;28;20411;-73
2022/06/17 03:02:54;;;;;;;9.90;6.43;;;14.20;99.90;;;;;;4987175;28;20038;-73
2022/06/17 03:05:29;;;;;;;8.27;6.10;;;14.20;99.90;;;;;;4980931;28;20033;-73
2022/06/17 03:07:56;;;;;;;9.23;6.18;;;14.20;99.90;;;;;;4982120;28;20626;-73
2022/06/17 03:10:33;;;;;;;8.13;6.65;;;14.30;99.90;;;;;;4981962;28;20117;-73
2022/06/17 03:13:08;;;;;;;7.57;5.63;;;14.20;99.90;;;;;;4979684;28;20150;-73
2022/06/17 03:15:37;;;;;;;9.82;6.25;;;14.20;99.90;;;;;;4980570;28;20041;-73
2022/06/17 03:18:03;;;;;;;9.50;6.57;;;14.20;99.90;;;;;;4980407;28;20065;-74
2022/06/17 03:20:34;;;;;;;9.25;6.18;;;14.20;99.90;;;;;;4982895;28;20389;-73
2022/06/17 03:23:13;;;;;;;9.88;6.75;;;14.20;99.90;;;;;;4952557;28;20049;-74
2022/06/17 03:25:56;;;;;;;9.75;6.90;;;14.20;99.90;;;;;;4986754;28;20438;-74
2022/06/17 03:28:29;;;;;;;8.68;5.97;;;14.20;99.90;;;;;;4983636;28;20034;-74
2022/06/17 03:31:07;;;;;;;11.00;6.65;;;14.20;99.90;;;;;;4988029;28;20034;-74
2022/06/17 03:33:44;;;;;;;8.80;6.05;;;14.20;99.90;;;;;;4985549;28;20019;-72
2022/06/17 03:36:24;;;;;;;10.95;7.30;;;14.30;99.90;;;;;;4988828;28;20029;-72
2022/06/17 03:38:55;;;;;;;9.27;6.18;;;14.30;99.90;;;;;;4987038;28;20490;-73
2022/06/17 03:41:42;;;;;;;11.50;6.88;;;14.30;99.90;;;;;;4970124;28;20030;-72
2022/06/17 03:44:14;;;;;;;8.40;6.95;;;14.30;99.90;;;;;;4985601;28;20045;-74
2022/06/17 03:46:49;;;;;;;10.52;6.40;;;14.30;99.90;;;;;;4987736;28;20034;-74
2022/06/17 03:49:40;;;;;;;8.40;6.50;;;14.40;99.90;;;;;;4970606;28;20034;-74
2022/06/17 03:52:32;;;;;;;12.13;7.28;;;14.40;99.90;;;;;;4982919;28;20045;-73
2022/06/17 03:54:58;;;;;;;8.63;6.57;;;14.40;99.90;;;;;;4984476;28;20069;-73
2022/06/17 03:57:25;;;;;;;10.20;6.43;;;14.40;99.90;;;;;;4979658;28;20109;-72
2022/06/17 03:59:52;;;;;;;9.40;7.05;;;14.50;99.90;;;;;;4987581;28;20077;-74
2022/06/17 04:02:19;;;;;;;9.85;7.30;;;14.50;99.90;;;;;;4984152;28;20083;-74
2022/06/17 04:04:50;;;;;;;9.50;7.07;;;14.50;99.90;;;;;;4988695;28;20045;-74
2022/06/17 04:07:16;;;;;;;8.88;6.85;;;14.50;99.90;;;;;;4981609;28;20030;-74
2022/06/17 04:09:44;;;;;;;8.68;6.38;;;14.50;99.90;;;;;;4985432;28;20463;-74
2022/06/17 04:12:12;;;;;;;9.18;6.57;;;14.50;99.90;;;;;;4982331;28;20031;-74
2022/06/17 04:14:54;;;;;;;8.05;6.15;;;14.50;99.90;;;;;;4985435;28;20402;-74
2022/06/17 04:17:42;;;;;;;11.02;6.78;;;14.50;99.90;;;;;;4981102;28;20077;-73
2022/06/17 04:20:35;;;;;;;9.98;7.03;;;14.50;99.90;;;;;;4983809;28;20060;-74
2022/06/17 04:23:14;;;;;;;11.90;6.45;;;14.60;99.90;;;;;;4980808;28;20033;-74
2022/06/17 04:25:45;;;;;;;10.82;7.25;;;14.60;99.90;;;;;;4982006;28;20038;-74
2022/06/17 04:28:16;;;;;;;9.95;6.57;;;14.50;99.90;;;;;;4978548;28;20387;-73
2022/06/17 04:30:45;;;;;;;11.80;7.20;;;14.50;99.90;;;;;;4980516;28;20046;-74
2022/06/17 04:33:22;;;;;;;9.70;7.00;;;14.50;99.90;;;;;;4982404;28;20273;-74
2022/06/17 04:35:51;;;;;;;8.10;6.07;;;14.60;99.90;;;;;;4984108;28;20027;-74
2022/06/17 04:38:18;;;;;;;9.38;6.55;;;14.60;99.90;;;;;;4985686;28;20105;-74
2022/06/17 04:40:54;;;;;;;10.20;7.18;;;14.70;99.90;;;;;;4977998;28;20364;-75
2022/06/17 04:43:41;;;;;;;7.30;6.10;;;14.80;99.90;;;;;;4981873;28;20494;-73
2022/06/17 04:46:09;;;;;;;9.52;7.07;;;14.80;99.90;;;;;;4983772;28;20047;-74
2022/06/17 04:48:36;;;;;;;10.70;7.85;;;14.80;99.90;;;;;;4966520;28;20026;-73
2022/06/17 04:51:03;;;;;;;9.52;7.20;;;14.90;99.90;;;;;;4978395;28;20663;-74
2022/06/17 04:53:31;;;;;;;11.43;8.00;;;14.90;99.90;;;;;;4982425;28;20037;-74
2022/06/17 04:55:57;;;;;;;11.65;7.05;;;14.90;99.90;;;;;;4982064;28;20502;-74
2022/06/17 04:58:25;;;;;;;12.10;7.63;;;15.00;99.90;;;;;;4971917;28;20053;-74
2022/06/17 05:00:54;;;;;;;11.55;7.50;;;15.00;99.90;;;;;;4980917;28;20163;-75
2022/06/17 05:03:26;;;;;;;9.95;7.35;;;15.10;99.90;;;;;;4986541;28;20030;-74
2022/06/17 05:05:52;;;;;;;9.45;7.25;;;15.10;99.90;;;;;;4978362;28;20030;-74
2022/06/17 05:08:21;;;;;;;10.93;7.95;;;15.20;99.90;;;;;;4978966;28;20114;-73
2022/06/17 05:10:53;;;;;;;18.73;10.77;;;15.10;99.90;;;;;;4978452;28;20065;-74
2022/06/17 05:13:31;;;;;;;10.27;7.07;;;15.20;99.90;;;;;;4976885;28;20026;-73
2022/06/17 05:15:57;;;;;;;14.73;8.30;;;15.20;99.90;;;;;;4975895;28;20034;-74
2022/06/17 05:18:23;;;;;;;11.52;7.68;;;15.20;99.90;;;;;;4977571;28;20181;-75
2022/06/17 05:20:48;;;;;;;9.70;7.30;;;15.30;99.90;;;;;;4983725;28;20041;-73
2022/06/17 05:23:16;;;;;;;15.00;7.72;;;15.40;99.90;;;;;;4974118;28;20039;-75
2022/06/17 05:25:45;;;;;;;15.70;8.35;;;15.50;99.90;;;;;;4979811;28;20049;-74
2022/06/17 05:28:17;;;;;;;13.13;9.00;;;15.50;99.90;;;;;;4963660;28;20556;-74
2022/06/17 05:30:51;;;;;;;9.25;7.53;;;15.60;99.90;;;;;;4978148;28;20037;-74
2022/06/17 05:33:17;;;;;;;14.57;8.15;;;15.70;99.90;;;;;;4973638;28;20030;-73
2022/06/17 05:35:43;;;;;;;9.45;6.95;;;15.70;99.90;;;;;;4976153;28;20041;-73
2022/06/17 05:38:11;;;;;;;9.40;6.85;;;15.80;99.90;;;;;;4980507;28;20038;-73
2022/06/17 05:40:38;;;;;;;9.77;6.93;;;15.80;99.90;;;;;;4974414;28;20959;-74
2022/06/17 05:43:05;;;;;;;9.13;5.60;;;15.90;99.90;;;;;;4977836;28;20117;-74
2022/06/17 05:45:31;;;;;;;7.63;5.72;;;15.90;99.90;;;;;;4979613;28;20542;-73
2022/06/17 05:47:57;;;;;;;5.97;3.97;;;16.00;99.90;;;;;;4983972;28;20037;-74
2022/06/17 05:50:25;;;;;;;7.05;3.92;;;16.10;99.90;;;;;;4982207;28;20064;-74
2022/06/17 05:52:56;;;;;;;7.68;4.80;;;16.30;99.90;;;;;;4986466;28;20026;-74
2022/06/17 05:55:23;;;;;;;;;;;16.60;99.90;;;;;;4986162;28;20041;-74
2022/06/17 05:57:49;;;;;;;11.27;5.72;;;16.80;99.90;;;;;;4983540;28;19953;-74
2022/06/17 06:00:16;;;;;;;6.65;5.20;;;16.80;99.90;;;;;;4978531;28;20070;-74
2022/06/17 06:02:42;;;;;;;9.45;5.70;;;16.80;99.90;;;;;;4987263;28;20031;-75
2022/06/17 06:05:11;;;;;;;10.10;5.43;;;16.80;99.90;;;;;;4984644;28;20038;-75
2022/06/17 06:07:37;;;;;;;10.02;5.18;;;16.70;99.90;;;;;;4976852;28;20046;-75
2022/06/17 06:10:03;;;;;;;8.75;5.55;;;16.70;99.90;;;;;;4979746;28;20035;-75
2022/06/17 06:15:14;;;;;;;8.57;4.75;;;16.80;99.90;;;;;;4983225;28;20479;-75
2022/06/17 06:17:39;;;;;;;8.27;5.07;;;16.80;99.90;;;;;;4980835;28;20057;-75
2022/06/17 06:20:05;;;;;;;6.38;4.43;;;16.80;99.90;;;;;;4985150;28;20677;-75
2022/06/17 06:22:31;;;;;;;6.80;4.07;;;16.80;99.90;;;;;;4984546;28;20035;-74
2022/06/17 06:24:57;;;;;;;7.30;4.10;;;16.90;99.90;;;;;;4986632;28;20533;-72
2022/06/17 06:27:22;;;;;;;6.97;4.60;;;16.90;99.90;;;;;;4979295;28;20038;-69
2022/06/17 06:29:48;;;;;;;7.90;4.13;;;17.00;99.90;;;;;;4963551;28;20038;-73
2022/06/17 06:32:14;;;;;;;9.15;5.05;;;17.00;99.90;;;;;;4966797;28;20031;-73
2022/06/17 06:34:39;;;;;;;7.40;4.70;;;17.10;99.90;;;;;;4983402;28;20026;-72
2022/06/17 06:37:05;;;;;;;9.30;5.38;;;17.20;99.90;;;;;;4982085;28;20175;-71
2022/06/17 06:39:31;;;;;;;6.78;4.60;;;17.20;99.90;;;;;;4979636;28;20035;-71
2022/06/17 06:41:56;;;;;;;9.20;5.25;;;17.30;99.90;;;;;;4977335;28;20042;-72
2022/06/17 06:44:22;;;;;;;6.38;4.35;;;17.30;99.90;;;;;;4979240;28;20030;-72
2022/06/17 06:46:48;;;;;;;4.53;3.40;;;17.40;99.90;;;;;;4972895;28;20495;-73
2022/06/17 06:49:14;;;;;;;10.52;4.18;;;17.40;99.90;;;;;;4979804;28;20053;-72
2022/06/17 06:51:39;;;;;;;5.03;3.25;;;17.40;99.90;;;;;;4965520;28;20786;-73
2022/06/17 06:54:05;;;;;;;5.07;3.08;;;17.50;99.90;;;;;;4978950;28;20049;-71
2022/06/17 06:56:31;;;;;;;7.97;4.25;;;17.50;99.90;;;;;;4977349;28;20038;-69
2022/06/17 06:58:57;;;;;;;9.00;4.00;;;17.60;99.90;;;;;;4975541;28;20406;-70
2022/06/17 07:01:22;;;;;;;8.38;4.20;;;17.70;99.90;;;;;;4980995;28;20572;-69
2022/06/17 07:03:48;;;;;;;5.05;3.45;;;17.80;99.90;;;;;;4974237;28;20026;-69
2022/06/17 07:06:14;;;;;;;6.47;4.00;;;17.80;99.90;;;;;;4962178;28;20042;-69
2022/06/17 07:08:39;;;;;;;6.07;3.90;;;17.80;99.90;;;;;;4968140;28;20418;-69
2022/06/17 07:11:07;;;;;;;4.97;3.55;;;17.90;99.90;;;;;;4950732;28;21495;-69
2022/06/17 07:13:34;;;;;;;9.38;3.45;;;17.90;99.90;;;;;;4952227;28;20046;-69
2022/06/17 07:16:01;;;;;;;7.82;4.00;;;17.90;99.90;;;;;;4951676;28;21461;-69
2022/06/17 07:18:32;;;;;;;6.18;3.60;;;18.00;99.90;;;;;;4958030;28;20031;-69
2022/06/17 07:21:00;;;;;;;;;;;18.10;99.90;;;;;;4953345;28;20431;-70
2022/06/17 07:23:29;;;;;;;9.95;4.03;;;18.10;99.90;;;;;;4961085;28;19918;-70
2022/06/17 07:25:58;;;;;;;7.95;4.53;;;18.20;99.70;;;;;;4960593;28;20498;-69
2022/06/17 07:28:25;;;;;;;7.05;3.55;;;18.10;99.30;;;;;;4952904;28;20027;-69
2022/06/17 07:30:54;;;;;;;6.93;4.05;;;18.20;99.50;;;;;;4960223;28;20042;-70
2022/06/17 07:33:22;;;;;;;8.13;4.28;;;18.30;99.50;;;;;;4951575;28;20039;-74
2022/06/17 07:35:49;;;;;;;6.47;3.40;;;18.40;99.50;;;;;;4949824;28;20049;-72
2022/06/17 07:41:04;;;;;;;6.53;3.70;;;18.40;98.30;;;;;;4950975;28;20050;-74
2022/06/17 07:43:30;;;;;;;7.03;3.38;;;18.40;99.00;;;;;;4952198;28;20117;-73
2022/06/17 07:45:56;;;;;;;5.70;3.20;;;18.50;99.00;;;;;;4948940;28;20043;-74
2022/06/17 07:48:22;;;;;;;5.20;2.88;;;18.50;99.00;;;;;;4949795;28;20031;-74
2022/06/17 07:50:48;;;;;;;6.50;4.18;;;18.60;99.10;;;;;;4965994;28;20026;-73
2022/06/17 07:53:15;;;;;;;6.43;3.15;;;18.70;98.70;;;;;;4979368;28;20034;-74
2022/06/17 07:55:42;;;;;;;4.70;3.22;;;18.80;98.50;;;;;;4987298;28;20089;-74
2022/06/17 07:58:11;;;;;;;5.50;3.20;;;18.80;98.50;;;;;;4982701;28;20498;-74
2022/06/17 08:00:41;;;;;;;4.78;3.35;;;18.90;97.90;;;;;;4983479;28;20034;-74
2022/06/17 08:03:07;;;;;;;5.63;3.10;;;19.00;98.10;;;;;;4970530;28;20092;-74
2022/06/17 08:05:35;;;;;;;6.30;3.35;;;19.00;98.00;;;;;;4974788;28;20027;-74
2022/06/17 08:08:03;;;;;;;4.47;3.05;;;19.10;97.90;;;;;;4975995;28;20054;-73
2022/06/17 08:10:32;;;;;;;4.63;2.50;;;19.10;97.80;;;;;;4990264;28;20323;-73
2022/06/17 08:12:58;;;;;;;6.80;2.70;;;19.20;97.60;;;;;;4984030;28;20030;-73
2022/06/17 08:15:24;;;;;;;4.72;2.78;;;19.20;97.50;;;;;;4983767;28;20090;-74
2022/06/17 08:17:50;;;;;;;5.05;2.80;;;19.30;97.30;;;;;;4984249;28;20057;-72
2022/06/17 08:20:20;;;;;;;9.35;3.72;;;19.40;97.20;;;;;;4982744;28;20038;-75
2022/06/17 08:22:46;;;;;;;11.65;3.78;;;19.50;97.10;;;;;;4989631;28;20049;-73
2022/06/17 08:25:13;;;;;;;6.22;3.50;;;19.60;96.60;;;;;;4987301;28;20043;-74
2022/06/17 08:27:47;;;;;;;4.90;2.80;;;19.70;96.30;;;;;;4990011;28;20105;-73
2022/06/17 08:30:14;;;;;;;5.10;3.00;;;19.90;96.60;;;;;;4988633;28;20035;-73
2022/06/17 08:32:47;;;;;;;5.35;3.45;;;20.10;95.80;;;;;;4990777;28;20034;-73
2022/06/17 08:35:17;;;;;;;8.45;3.90;;;20.30;95.10;;;;;;4989750;28;20106;-74
2022/06/17 08:37:44;;;;;;;5.32;3.15;;;20.50;94.50;;;;;;4991683;28;20146;-74
2022/06/17 08:40:42;;;;;;;5.95;3.00;;;20.80;93.40;;;;;;4986458;28;20034;-73
2022/06/17 08:43:26;;;;;;;6.03;3.13;;;21.10;92.60;;;;;;4986323;28;20376;-74
2022/06/17 08:46:13;;;;;;;6.70;2.53;;;21.10;92.00;;;;;;4986854;28;20026;-72
2022/06/17 08:49:08;;;;;;;3.70;2.00;;;21.30;92.10;;;;;;4990619;28;20023;-72
2022/06/17 08:51:52;;;;;;;4.63;2.42;;;21.40;91.80;;;;;;4987537;28;20685;-72
2022/06/17 08:54:41;;;;;;;5.90;2.78;;;21.50;92.00;;;;;;4983452;28;20034;-72
2022/06/17 08:57:24;;;;;;;3.42;2.08;;;21.50;91.90;;;;;;4988279;28;20105;-72
2022/06/17 09:00:11;;;;;;;4.75;2.20;;;21.70;92.00;;;;;;4985903;28;20495;-72
2022/06/17 09:02:50;;;;;;;5.10;2.40;;;21.70;92.00;;;;;;4988459;28;20034;-73
2022/06/17 09:05:23;;;;;;;3.00;2.30;;;21.80;92.10;;;;;;4989282;28;20494;-72
2022/06/17 09:08:26;;;;;;;3.63;2.20;;;21.80;92.00;;;;;;4990708;28;20027;-73
2022/06/17 09:11:15;;;;;;;3.28;2.22;;;21.90;91.80;;;;;;4965631;28;20030;-72
2022/06/17 09:14:08;;;;;;;5.70;3.15;;;21.90;91.30;;;;;;4984096;28;20030;-73
2022/06/17 09:16:47;;;;;;;5.20;3.13;;;22.10;90.70;;;;;;4981160;28;20431;-72
2022/06/17 09:19:18;;;;;;;4.85;3.17;;;22.10;90.40;;;;;;4986735;28;20030;-71
2022/06/17 09:21:50;;;;;;;5.43;3.10;;;22.10;90.60;;;;;;4984678;28;20054;-72
2022/06/17 09:24:33;;;;;;;4.93;2.83;;;22.20;91.00;;;;;;4987345;28;20406;-72
2022/06/17 09:27:00;;;;;;;4.25;3.17;;;22.30;91.30;;;;;;4982871;28;20049;-72
2022/06/17 09:29:47;;;;;;;4.88;2.78;;;22.40;90.50;;;;;;4981154;28;20491;-72
2022/06/17 09:32:22;;;;;;;8.80;4.20;;;22.40;90.20;;;;;;4980314;28;20088;-71
2022/06/17 09:34:53;;;;;;;6.15;2.58;;;22.40;89.10;;;;;;4981070;28;20037;-72
2022/06/17 09:37:44;;;;;;;6.90;3.08;;;22.50;90.30;;;;;;4980475;28;20395;-72
2022/06/17 09:40:17;;;;;;;5.47;3.13;;;22.70;89.70;;;;;;4985734;28;20082;-72
2022/06/17 09:42:46;;;;;;;7.82;4.15;;;22.80;88.90;;;;;;4982024;28;20038;-73
2022/06/17 09:45:25;;;;;;;6.43;3.60;;;22.90;87.20;;;;;;4982649;28;20066;-74
2022/06/17 09:48:00;;;;;;;8.25;3.58;;;22.90;87.40;;;;;;4983154;28;20034;-72
2022/06/17 09:50:48;;;;;;;6.40;2.88;;;23.00;87.90;;;;;;4987395;28;20124;-75
2022/06/17 09:53:20;;;;;;;5.63;3.03;;;23.20;87.50;;;;;;4976969;28;20130;-76
2022/06/17 09:55:54;;;;;;;6.10;3.88;;;23.20;86.30;;;;;;4964965;28;20033;-75
2022/06/17 09:58:36;;;;;;;4.53;3.03;;;23.10;85.70;;;;;;4974537;28;20490;-75
2022/06/17 10:01:02;;;;;;;5.97;3.55;;;22.90;85.70;;;;;;4983892;28;20399;-75
2022/06/17 10:03:32;;;;;;;6.32;3.38;;;23.00;85.10;;;;;;4976846;28;20046;-74
2022/06/17 10:06:39;;;;;;;6.07;3.05;;;23.00;84.70;;;;;;4980686;28;20035;-73
2022/06/17 10:09:17;;;;;;;5.55;2.90;;;23.00;84.90;;;;;;4940805;28;20035;-73
2022/06/17 10:12:07;;;;;;;5.95;2.60;;;23.10;85.60;;;;;;4943295;28;20728;-76
2022/06/17 10:15:09;;;;;;;6.50;3.08;;;23.20;85.70;;;;;;4957027;28;20193;-73
2022/06/17 10:21:21;;;;;;;5.13;3.08;;;23.40;82.80;;;;;;4963566;28;20093;-76
2022/06/17 10:24:22;;;;;;;5.45;3.00;;;23.40;81.60;;;;;;4962328;28;20428;-73
2022/06/17 10:27:05;;;;;;;8.27;5.30;;;23.40;81.10;;;;;;4964350;28;20045;-73
2022/06/17 10:29:56;;;;;;;6.05;4.18;;;23.40;79.40;;;;;;4961049;28;20093;-76
2022/06/17 10:32:29;;;;;;;13.98;8.20;;;23.40;80.40;;;;;;4939959;28;20707;-77
2022/06/17 10:34:59;;;;;;;9.50;4.03;;;23.40;81.10;;;;;;4962560;28;20034;-74
2022/06/17 10:37:26;;;;;;;8.25;4.25;;;23.60;80.10;;;;;;4960034;28;20094;-74
2022/06/17 10:39:53;;;;;;;6.72;3.00;;;23.80;77.60;;;;;;4947390;28;20085;-76
2022/06/17 10:42:20;;;;;;;5.47;3.55;;;23.90;77.90;;;;;;4961238;28;20109;-74
2022/06/17 10:44:50;;;;;;;6.10;3.95;;;24.00;75.60;;;;;;4957520;28;20164;-73
2022/06/17 10:47:30;;;;;;;4.45;3.33;;;24.20;74.60;;;;;;4980836;28;20051;-73
2022/06/17 10:50:01;;;;;;;6.53;3.15;;;24.20;73.60;;;;;;4981634;28;20449;-75
2022/06/17 10:52:51;;;;;;;3.38;2.83;;;24.20;76.10;;;;;;4981435;28;20031;-73
2022/06/17 10:55:27;;;;;;;4.85;2.90;;;24.20;76.40;;;;;;4981388;28;20054;-74
2022/06/17 10:58:18;;;;;;;7.15;3.13;;;24.20;77.20;;;;;;4978885;28;20027;-73
2022/06/17 11:01:06;;;;;;;4.43;2.40;;;24.10;75.90;;;;;;4982634;28;20117;-74
2022/06/17 11:03:40;;;;;;;5.03;4.15;;;24.10;76.50;;;;;;4965932;28;20930;-74
2022/06/17 11:06:21;;;;;;;6.40;3.58;;;23.70;71.20;;;;;;4976736;28;20039;-73
2022/06/17 11:08:58;;;;;;;7.63;2.80;;;23.80;73.50;;;;;;4982456;28;20034;-74
2022/06/17 11:12:06;;;;;;;5.88;2.83;;;23.90;74.40;;;;;;4976097;28;20034;-73
2022/06/17 11:14:44;;;;;;;7.45;2.70;;;24.10;73.50;;;;;;4978946;28;20034;-72
2022/06/17 11:17:38;;;;;;;4.82;2.65;;;24.20;72.50;;;;;;4982633;28;20039;-73
2022/06/17 11:20:26;;;;;;;6.78;3.10;;;24.10;72.80;;;;;;4987145;28;20574;-75
2022/06/17 11:23:02;;;;;;;3.75;2.20;;;24.10;71.60;;;;;;4974647;28;20053;-73
2022/06/17 11:25:31;;;;;;;5.30;2.45;;;24.10;72.90;;;;;;4974892;28;20026;-74
2022/06/17 11:28:18;;;;;;;5.25;2.60;;;24.20;73.10;;;;;;4952418;28;20613;-72
2022/06/17 11:31:00;;;;;;;5.95;2.72;;;24.40;73.00;;;;;;4972962;28;20046;-74
2022/06/17 11:33:33;;;;;;;8.15;2.70;;;24.40;71.30;;;;;;4972973;28;20030;-73
2022/06/17 11:36:09;;;;;;;8.20;2.83;;;24.40;71.80;;;;;;4969013;28;20039;-74
2022/06/17 11:38:35;;;;;;;6.22;3.13;;;24.30;71.60;;;;;;4970661;28;20049;-74
2022/06/17 11:41:03;;;;;;;5.00;2.50;;;24.40;70.00;;;;;;4970666;28;20034;-74
2022/06/17 11:43:36;;;;;;;5.68;2.60;;;24.40;70.30;;;;;;4974742;28;20387;-74
2022/06/17 11:46:10;;;;;;;4.45;2.70;;;24.40;70.70;;;;;;4984019;28;20195;-74
2022/06/17 11:48:41;;;;;;;5.55;3.95;;;24.40;70.20;;;;;;4968177;28;20523;-74
2022/06/17 11:51:14;;;;;;;4.25;2.72;;;23.90;65.60;;;;;;4983650;28;20038;-74
2022/06/17 11:54:06;;;;;;;3.28;2.47;;;24.00;69.10;;;;;;4982795;28;20030;-74
2022/06/17 11:56:40;;;;;;;4.28;2.55;;;24.10;71.10;;;;;;4975741;28;20564;-74
2022/06/17 11:59:09;;;;;;;5.80;2.97;;;24.30;70.80;;;;;;4986932;28;20058;-75
2022/06/17 12:01:35;;;;;;;5.28;2.28;;;24.60;69.40;;;;;;4984845;28;20450;-74
2022/06/17 12:04:01;;;;;;;7.45;3.95;;;24.70;69.90;;;;;;4983790;28;20041;-73
2022/06/17 12:06:44;;;;;;;5.05;2.53;;;24.80;66.50;;;;;;4983274;28;20030;-72
2022/06/17 12:09:41;;;;;;;4.93;3.20;;;24.90;67.30;;;;;;4985943;28;20060;-72
2022/06/17 12:12:13;;;;;;;5.07;3.05;;;24.90;65.80;;;;;;4964939;28;20288;-75
2022/06/17 12:14:53;;;;;;;7.68;2.45;;;25.00;66.20;;;;;;4983909;28;20106;-74
2022/06/17 12:17:20;;;;;;;5.38;2.70;;;24.90;66.70;;;;;;4986082;28;20105;-76
2022/06/17 12:19:46;;;;;;;5.47;2.85;;;24.80;66.00;;;;;;4988238;28;20037;-74
2022/06/17 12:22:18;;;;;;;5.75;2.95;;;24.60;66.30;;;;;;4968223;28;20061;-76
2022/06/17 12:24:57;;;;;;;4.30;2.70;;;24.40;66.50;;;;;;4983546;28;20039;-75
2022/06/17 12:27:46;;;;;;;6.57;3.33;;;24.30;69.00;;;;;;4989033;28;20054;-75
2022/06/17 12:30:28;;;;;;;7.57;2.80;;;24.20;68.00;;;;;;4988614;28;20038;-75
2022/06/17 12:33:14;;;;;;;3.50;2.53;;;24.00;68.00;;;;;;4982970;28;20074;-76
2022/06/17 12:35:46;;;;;;;5.43;2.70;;;23.90;69.00;;;;;;4968237;28;20078;-77
2022/06/17 12:38:55;;;;;;;4.25;2.38;;;23.80;68.80;;;;;;4998753;28;20065;-75
2022/06/17 12:41:27;;;;;;;6.03;3.25;;;23.80;70.50;;;;;;4988351;28;20033;-73
2022/06/17 12:43:58;;;;;;;4.88;2.67;;;23.70;68.70;;;;;;4985251;28;20026;-71
2022/06/17 12:46:45;;;;;;;5.80;3.20;;;23.80;70.20;;;;;;5001371;28;20518;-72
2022/06/17 12:55:33;;;;;;;5.07;3.08;;;24.20;69.10;;;;;;4978326;28;20027;-75
2022/06/17 12:58:02;;;;;;;3.53;2.20;;;24.30;69.20;;;;;;4972083;28;20113;-80
2022/06/17 13:00:36;;;;;;;4.28;2.60;;;24.30;69.30;;;;;;4980016;28;20034;-79
2022/06/17 13:03:48;;;;;;;5.65;3.08;;;24.30;68.90;;;;;;4976839;28;20022;-79
2022/06/17 13:06:19;;;;;;;6.90;2.88;;;24.50;68.90;;;;;;4955198;28;20534;-80
2022/06/17 13:08:53;;;;;;;4.30;2.75;;;24.70;67.40;;;;;;4988906;28;20030;-77
2022/06/17 13:11:28;;;;;;;6.57;3.53;;;25.10;66.90;;;;;;4999670;28;20121;-79
2022/06/17 13:14:06;;;;;;;5.38;2.95;;;25.50;65.00;;;;;;4996251;28;20035;-79
2022/06/17 13:16:46;;;;;;;3.78;2.38;;;25.70;64.90;;;;;;4990224;28;20057;-79
2022/06/17 13:19:32;;;;;;;5.03;2.25;;;25.70;65.90;;;;;;4976386;28;20030;-79
2022/06/17 13:22:25;;;;;;;5.35;2.95;;;25.80;66.20;;;;;;4996321;28;20057;-79
2022/06/17 13:25:03;;;;;;;5.95;2.97;;;26.00;65.40;;;;;;4994454;28;20052;-78
2022/06/17 13:27:48;;;;;;;5.43;2.80;;;26.20;64.00;;;;;;4992607;28;20458;-80
2022/06/17 13:30:16;;;;;;;4.70;2.60;;;26.20;63.90;;;;;;4986369;28;20027;-79
2022/06/17 13:32:47;;;;;;;5.07;2.70;;;26.30;64.80;;;;;;4975935;28;20053;-82
2022/06/17 13:35:28;;;;;;;5.35;3.30;;;26.50;65.10;;;;;;4988920;28;20034;-80